Time;durP1;ratioP1;P1;durP2;ratioP2;P2;SDS_P1;SDS_P2;PMS_P1;PMS_P2;Temp;Humidity;BMP_temperature;BMP_pressure;BME280_temperature;BME280_humidity;BME280_pressure;Samples;Min_cycle;Max_cycle;Signal;HPM_P1;HPM_P2
2023/08/19 00:01:45;;;;;;;132.65;125.75;;;;;;;;;;5068942;28;20074;-63
2023/08/19 00:04:10;;;;;;;125.53;119.22;;;;;;;;;;5067681;28;20043;-62
2023/08/19 00:06:40;;;;;;;111.57;105.85;;;;;;;;;;5067016;28;20038;-63
2023/08/19 00:09:08;;;;;;;119.10;113.07;;;;;;;;;;5068235;28;20665;-63
2023/08/19 00:11:39;;;;;;;115.50;109.55;;;;;;;;;;5068647;28;20564;-62
2023/08/19 00:14:05;;;;;;;132.60;125.85;;;;;;;;;;5067191;28;20044;-62
2023/08/19 00:16:34;;;;;;;132.82;125.97;;;;;;;;;;5062577;28;20455;-63
2023/08/19 00:19:00;;;;;;;112.93;107.05;;;;;;;;;;5065018;28;20051;-63
2023/08/19 00:21:26;;;;;;;118.80;112.75;;;;;;;;;;5064386;28;20032;-63
2023/08/19 00:23:52;;;;;;;110.88;105.20;;;;;;;;;;5065695;28;20020;-63
2023/08/19 00:26:17;;;;;;;110.30;104.68;;;;;;;;;;5068587;28;20039;-63
2023/08/19 00:28:43;;;;;;;104.47;99.28;;;;;;;;;;5068415;28;20470;-63
2023/08/19 00:31:08;;;;;;;107.72;102.20;;;;;;;;;;5063124;28;20723;-63
2023/08/19 00:33:34;;;;;;;108.70;103.22;;;;;;;;;;5064592;28;20052;-63
2023/08/19 00:36:00;;;;;;;98.25;93.25;;;;;;;;;;5064467;28;20084;-63
2023/08/19 00:38:25;;;;;;;103.00;97.80;;;;;;;;;;5063297;28;20223;-63
2023/08/19 00:40:51;;;;;;;94.78;90.03;;;;;;;;;;5064647;28;20039;-63
2023/08/19 00:43:16;;;;;;;111.55;105.45;;;;;;;;;;5067494;28;20374;-63
2023/08/19 00:45:46;;;;;;;105.20;99.97;;;;;;;;;;5066497;28;20035;-63
2023/08/19 00:48:14;;;;;;;146.10;138.85;;;;;;;;;;5064630;28;20540;-63
2023/08/19 00:50:39;;;;;;;144.68;137.45;;;;;;;;;;5065942;28;20097;-63
2023/08/19 00:53:06;;;;;;;131.68;125.07;;;;;;;;;;5066463;28;20037;-63
2023/08/19 00:55:32;;;;;;;142.05;134.98;;;;;;;;;;5065457;28;20056;-64
2023/08/19 00:58:01;;;;;;;118.80;112.85;;;;;;;;;;5066657;28;20068;-64
2023/08/19 01:00:29;;;;;;;121.63;115.55;;;;;;;;;;5101580;28;20032;-64
2023/08/19 01:02:55;;;;;;;110.95;105.38;;;;;;;;;;5065113;28;20041;-64
2023/08/19 01:05:22;;;;;;;123.60;117.32;;;;;;;;;;5062599;28;20386;-64
2023/08/19 01:07:59;;;;;;;107.85;102.35;;;;;;;;;;5063994;28;20029;-64
2023/08/19 01:11:00;;;;;;;104.32;99.10;;;;;;;;;;5066673;28;20035;-64
2023/08/19 01:13:34;;;;;;;108.80;103.38;;;;;;;;;;5069790;28;20043;-64
2023/08/19 01:16:11;;;;;;;111.57;105.90;;;;;;;;;;5067608;28;20044;-64
2023/08/19 01:18:38;;;;;;;113.20;107.53;;;;;;;;;;5066302;28;20037;-64
2023/08/19 01:21:04;;;;;;;115.22;109.45;;;;;;;;;;5066214;28;20043;-64
2023/08/19 01:23:35;;;;;;;136.98;129.68;;;;;;;;;;5065966;28;20028;-65
2023/08/19 01:26:01;;;;;;;144.00;136.05;;;;;;;;;;5064059;28;20086;-64
2023/08/19 01:28:27;;;;;;;165.98;157.23;;;;;;;;;;5065663;28;20374;-64
2023/08/19 01:30:52;;;;;;;159.52;151.23;;;;;;;;;;5062860;28;20025;-64
2023/08/19 01:33:19;;;;;;;171.13;162.50;;;;;;;;;;5065652;28;20370;-64
2023/08/19 01:36:06;;;;;;;181.30;172.18;;;;;;;;;;5063460;28;20041;-64
2023/08/19 01:38:50;;;;;;;170.05;161.55;;;;;;;;;;5066070;28;20032;-64
2023/08/19 01:41:19;;;;;;;157.02;148.95;;;;;;;;;;5065846;28;20342;-64
2023/08/19 01:43:44;;;;;;;166.80;158.45;;;;;;;;;;5064917;28;20039;-64
2023/08/19 01:46:10;;;;;;;180.57;171.50;;;;;;;;;;5063644;28;20028;-64
2023/08/19 01:48:36;;;;;;;190.25;180.82;;;;;;;;;;5059448;28;20462;-64
2023/08/19 01:51:01;;;;;;;182.23;173.18;;;;;;;;;;5067457;28;20043;-64
2023/08/19 01:53:26;;;;;;;189.00;179.48;;;;;;;;;;5065776;28;20101;-64
2023/08/19 01:55:52;;;;;;;176.35;167.57;;;;;;;;;;5070368;28;20424;-64
2023/08/19 01:58:17;;;;;;;200.07;190.23;;;;;;;;;;5069376;28;20032;-64
2023/08/19 02:00:42;;;;;;;194.10;184.50;;;;;;;;;;5072131;28;20241;-64
2023/08/19 02:03:08;;;;;;;186.23;177.05;;;;;;;;;;5069195;28;20032;-64
2023/08/19 02:05:33;;;;;;;193.70;183.93;;;;;;;;;;5069703;28;20036;-64
2023/08/19 02:07:58;;;;;;;193.00;183.50;;;;;;;;;;5066443;28;20035;-65
2023/08/19 02:10:24;;;;;;;186.07;176.90;;;;;;;;;;5067518;28;20029;-65
2023/08/19 02:12:49;;;;;;;179.25;170.40;;;;;;;;;;5066237;28;20067;-65
2023/08/19 02:15:14;;;;;;;177.23;168.48;;;;;;;;;;5067747;28;20028;-65
2023/08/19 02:17:40;;;;;;;186.75;177.55;;;;;;;;;;5064545;28;20090;-65
2023/08/19 02:20:06;;;;;;;188.02;178.73;;;;;;;;;;5069304;28;20025;-65
2023/08/19 02:22:31;;;;;;;178.18;169.30;;;;;;;;;;5066337;28;20041;-65
2023/08/19 02:24:56;;;;;;;177.32;168.50;;;;;;;;;;5067831;28;20094;-65
2023/08/19 02:27:23;;;;;;;160.80;152.80;;;;;;;;;;5068342;28;20046;-64
2023/08/19 02:29:49;;;;;;;179.25;170.45;;;;;;;;;;5100964;27;20036;-64
2023/08/19 02:32:14;;;;;;;173.43;164.88;;;;;;;;;;5064272;28;20142;-64
2023/08/19 02:34:39;;;;;;;176.43;167.65;;;;;;;;;;5069078;28;20709;-64
2023/08/19 02:37:05;;;;;;;171.77;162.88;;;;;;;;;;5067076;28;20035;-64
2023/08/19 02:39:30;;;;;;;179.93;171.05;;;;;;;;;;5067185;28;20091;-65
2023/08/19 02:41:55;;;;;;;182.73;173.68;;;;;;;;;;5065565;28;20044;-64
2023/08/19 02:44:21;;;;;;;173.30;164.70;;;;;;;;;;5069093;28;20073;-64
2023/08/19 02:46:46;;;;;;;172.75;164.23;;;;;;;;;;5065958;28;20051;-65
2023/08/19 02:49:11;;;;;;;172.65;163.88;;;;;;;;;;5065451;28;20039;-64
2023/08/19 02:51:37;;;;;;;165.45;157.20;;;;;;;;;;5067625;28;20064;-64
2023/08/19 02:54:03;;;;;;;167.20;158.80;;;;;;;;;;5066566;28;20075;-65
2023/08/19 02:56:28;;;;;;;167.82;159.05;;;;;;;;;;5069462;28;20131;-65
2023/08/19 02:58:53;;;;;;;173.77;165.20;;;;;;;;;;5068165;28;20036;-64
2023/08/19 03:01:19;;;;;;;174.40;165.80;;;;;;;;;;5067972;28;20036;-65
2023/08/19 03:03:44;;;;;;;162.50;154.48;;;;;;;;;;5066840;28;20037;-64
2023/08/19 03:06:10;;;;;;;168.23;159.90;;;;;;;;;;5066965;28;20748;-64
2023/08/19 03:08:35;;;;;;;166.15;157.98;;;;;;;;;;5063811;28;20123;-64
2023/08/19 03:11:01;;;;;;;174.35;165.70;;;;;;;;;;5065670;28;20033;-65
2023/08/19 03:13:26;;;;;;;168.98;160.55;;;;;;;;;;5066998;28;20335;-64
2023/08/19 03:15:51;;;;;;;184.80;175.60;;;;;;;;;;5097207;27;20091;-65
2023/08/19 03:18:17;;;;;;;175.68;166.88;;;;;;;;;;5067545;28;20032;-64
2023/08/19 03:20:42;;;;;;;164.52;156.40;;;;;;;;;;5070099;28;20502;-64
2023/08/19 03:23:08;;;;;;;165.88;157.50;;;;;;;;;;5066526;28;20090;-65
2023/08/19 03:25:33;;;;;;;163.13;154.90;;;;;;;;;;5066680;28;20446;-64
2023/08/19 03:27:59;;;;;;;160.93;152.95;;;;;;;;;;5066479;28;20132;-64
2023/08/19 03:30:24;;;;;;;157.35;149.13;;;;;;;;;;5064872;28;20102;-64
2023/08/19 03:32:49;;;;;;;151.27;143.82;;;;;;;;;;5066361;28;20033;-64
2023/08/19 03:35:15;;;;;;;155.52;147.85;;;;;;;;;;5101393;27;20034;-64
2023/08/19 03:37:41;;;;;;;160.55;152.63;;;;;;;;;;5065559;28;20433;-64
2023/08/19 03:40:07;;;;;;;152.57;145.00;;;;;;;;;;5067141;28;20040;-64
2023/08/19 03:42:32;;;;;;;149.63;142.23;;;;;;;;;;5064686;28;20029;-64
2023/08/19 03:44:57;;;;;;;160.60;152.68;;;;;;;;;;5067224;28;20418;-66
2023/08/19 03:47:23;;;;;;;150.90;143.43;;;;;;;;;;5065075;28;20118;-64
2023/08/19 03:49:48;;;;;;;155.15;147.43;;;;;;;;;;5065361;28;20028;-64
2023/08/19 03:52:13;;;;;;;145.95;138.73;;;;;;;;;;5064611;28;20063;-64
2023/08/19 03:54:39;;;;;;;141.07;134.07;;;;;;;;;;5067339;28;20067;-65
2023/08/19 03:57:04;;;;;;;152.18;144.57;;;;;;;;;;5064162;28;20047;-64
2023/08/19 03:59:29;;;;;;;134.65;127.97;;;;;;;;;;5063112;28;20091;-65
2023/08/19 04:01:55;;;;;;;142.80;135.73;;;;;;;;;;5066558;28;20075;-65
2023/08/19 04:04:20;;;;;;;149.88;142.48;;;;;;;;;;5064757;28;20442;-64
2023/08/19 04:06:45;;;;;;;145.05;137.88;;;;;;;;;;5066888;28;20470;-65
2023/08/19 04:09:12;;;;;;;171.45;163.10;;;;;;;;;;5065894;28;20041;-65
2023/08/19 04:11:38;;;;;;;161.23;153.13;;;;;;;;;;5066677;28;20033;-65
2023/08/19 04:14:05;;;;;;;152.63;145.10;;;;;;;;;;5063632;28;20055;-65
2023/08/19 04:16:31;;;;;;;158.55;150.52;;;;;;;;;;5066333;28;20036;-64
2023/08/19 04:18:56;;;;;;;166.25;158.05;;;;;;;;;;5066217;28;20417;-65
2023/08/19 04:21:22;;;;;;;161.07;153.07;;;;;;;;;;5066509;28;20028;-65
2023/08/19 04:23:48;;;;;;;172.45;163.95;;;;;;;;;;5058546;28;20529;-66
2023/08/19 04:26:13;;;;;;;171.10;162.68;;;;;;;;;;5067412;28;20037;-67
2023/08/19 04:28:41;;;;;;;172.63;164.13;;;;;;;;;;5065225;28;20058;-66
2023/08/19 04:31:08;;;;;;;179.52;170.73;;;;;;;;;;5064865;28;20663;-68
2023/08/19 04:33:35;;;;;;;174.23;165.68;;;;;;;;;;5098010;27;20505;-68
2023/08/19 04:36:02;;;;;;;171.93;163.45;;;;;;;;;;5066162;28;20604;-68
2023/08/19 04:38:28;;;;;;;173.23;163.98;;;;;;;;;;5062583;28;20456;-68
2023/08/19 04:40:54;;;;;;;177.48;168.75;;;;;;;;;;5065953;28;20032;-67
2023/08/19 04:43:19;;;;;;;180.50;171.65;;;;;;;;;;5064775;28;20135;-66
2023/08/19 04:45:45;;;;;;;196.50;186.93;;;;;;;;;;5096570;27;20031;-69
2023/08/19 04:48:10;;;;;;;184.07;175.10;;;;;;;;;;5059019;28;20044;-67
2023/08/19 04:50:36;;;;;;;173.65;165.15;;;;;;;;;;5062999;28;20064;-66
2023/08/19 04:53:02;;;;;;;161.88;153.90;;;;;;;;;;5069244;28;20466;-68
2023/08/19 04:55:27;;;;;;;149.93;142.48;;;;;;;;;;5065740;28;20041;-67
2023/08/19 04:57:53;;;;;;;150.20;142.52;;;;;;;;;;5066473;28;20435;-66
2023/08/19 05:00:18;;;;;;;133.57;126.93;;;;;;;;;;5067516;28;20043;-66
2023/08/19 05:02:43;;;;;;;128.25;121.82;;;;;;;;;;5066366;28;21388;-68
2023/08/19 05:05:09;;;;;;;131.32;124.82;;;;;;;;;;5094455;28;20036;-66
2023/08/19 05:07:34;;;;;;;141.68;134.70;;;;;;;;;;5063284;28;20619;-65
2023/08/19 05:10:00;;;;;;;144.85;137.75;;;;;;;;;;5065897;28;20528;-67
2023/08/19 05:12:25;;;;;;;152.20;144.77;;;;;;;;;;5072079;28;20114;-67
2023/08/19 05:14:51;;;;;;;158.57;150.82;;;;;;;;;;5066123;28;20041;-67
2023/08/19 05:17:17;;;;;;;152.23;144.77;;;;;;;;;;5066624;28;20109;-67
2023/08/19 05:19:43;;;;;;;173.60;165.10;;;;;;;;;;5066839;28;20146;-67
2023/08/19 05:22:08;;;;;;;185.23;176.15;;;;;;;;;;5066037;28;20363;-67
2023/08/19 05:24:33;;;;;;;184.20;175.20;;;;;;;;;;5065222;28;20024;-67
2023/08/19 05:27:00;;;;;;;181.57;172.75;;;;;;;;;;5068923;28;20593;-67
2023/08/19 05:29:25;;;;;;;195.73;186.05;;;;;;;;;;5068631;28;20041;-67
2023/08/19 05:31:51;;;;;;;204.15;194.20;;;;;;;;;;5067970;28;20135;-67
2023/08/19 05:34:16;;;;;;;288.45;274.35;;;;;;;;;;5066120;28;20040;-67
2023/08/19 05:36:42;;;;;;;288.58;274.52;;;;;;;;;;5070614;28;20021;-67
2023/08/19 05:39:07;;;;;;;289.60;275.45;;;;;;;;;;5067073;28;20040;-67
2023/08/19 05:41:33;;;;;;;308.38;293.33;;;;;;;;;;5069606;28;20451;-67
2023/08/19 05:43:58;;;;;;;308.70;293.63;;;;;;;;;;5071006;28;20040;-67
2023/08/19 05:46:24;;;;;;;296.33;281.95;;;;;;;;;;5073563;28;20511;-67
2023/08/19 05:48:49;;;;;;;284.20;270.00;;;;;;;;;;5072668;28;20158;-66
2023/08/19 05:51:14;;;;;;;301.88;287.10;;;;;;;;;;5099449;27;20047;-67
2023/08/19 05:53:40;;;;;;;281.80;268.02;;;;;;;;;;5066547;28;20052;-67
2023/08/19 05:56:05;;;;;;;310.73;295.58;;;;;;;;;;5068620;28;20050;-67
2023/08/19 05:58:31;;;;;;;290.05;275.92;;;;;;;;;;5074839;28;20040;-64
2023/08/19 06:01:02;;;;;;;324.77;308.88;;;;;;;;;;5066368;28;20102;-64
2023/08/19 06:03:28;;;;;;;288.83;274.83;;;;;;;;;;5068489;28;20043;-64
2023/08/19 06:05:53;;;;;;;280.17;266.63;;;;;;;;;;5068039;28;20021;-64
2023/08/19 06:08:19;;;;;;;325.55;309.58;;;;;;;;;;5070558;28;20361;-64
2023/08/19 06:10:44;;;;;;;313.75;298.48;;;;;;;;;;5069011;28;20031;-64
2023/08/19 06:13:10;;;;;;;330.63;314.38;;;;;;;;;;5065505;28;20036;-65
2023/08/19 06:15:36;;;;;;;379.65;360.63;;;;;;;;;;5069313;28;20032;-65
2023/08/19 06:18:01;;;;;;;384.80;365.48;;;;;;;;;;5061775;28;20428;-64
2023/08/19 06:20:27;;;;;;;321.80;305.90;;;;;;;;;;5058647;28;20036;-65
2023/08/19 06:22:52;;;;;;;339.77;322.83;;;;;;;;;;5049827;28;22831;-64
2023/08/19 06:25:18;;;;;;;338.80;321.92;;;;;;;;;;5038861;28;20043;-65
2023/08/19 06:27:43;;;;;;;334.08;317.45;;;;;;;;;;5040826;28;20453;-64
2023/08/19 06:30:09;;;;;;;301.15;286.30;;;;;;;;;;5038011;28;20128;-65
2023/08/19 06:32:35;;;;;;;231.52;220.25;;;;;;;;;;5038548;28;20596;-65
2023/08/19 06:35:02;;;;;;;175.65;166.98;;;;;;;;;;5039553;28;20067;-66
2023/08/19 06:37:30;;;;;;;163.68;155.57;;;;;;;;;;5059983;28;20496;-65
2023/08/19 06:39:57;;;;;;;203.70;193.60;;;;;;;;;;5064275;28;20636;-66
2023/08/19 06:42:24;;;;;;;155.55;147.75;;;;;;;;;;5093470;27;20033;-65
2023/08/19 06:44:53;;;;;;;92.78;88.10;;;;;;;;;;5050276;28;20127;-65
2023/08/19 06:47:21;;;;;;;117.78;111.90;;;;;;;;;;5052593;28;20025;-65
2023/08/19 06:49:47;;;;;;;42.63;40.38;;;;;;;;;;5048729;28;20033;-65
2023/08/19 06:52:13;;;;;;;59.78;56.67;;;;;;;;;;5049924;28;20047;-65
2023/08/19 06:54:39;;;;;;;98.15;93.10;;;;;;;;;;5054872;28;20582;-65
2023/08/19 06:57:09;;;;;;;38.65;36.50;;;;;;;;;;5061430;28;20123;-65
2023/08/19 06:59:38;;;;;;;50.03;47.42;;;;;;;;;;5060365;28;20036;-65
2023/08/19 07:02:05;;;;;;;127.97;121.65;;;;;;;;;;5065350;28;20470;-65
2023/08/19 07:04:31;;;;;;;51.40;48.72;;;;;;;;;;5060303;28;20032;-65
2023/08/19 07:06:58;;;;;;;94.57;89.80;;;;;;;;;;5060512;28;20033;-65
2023/08/19 07:09:24;;;;;;;150.90;143.43;;;;;;;;;;5057322;28;20024;-65
2023/08/19 07:11:53;;;;;;;95.38;90.53;;;;;;;;;;5060992;28;20035;-65
2023/08/19 07:14:19;;;;;;;160.50;152.60;;;;;;;;;;5055219;28;20051;-65
2023/08/19 07:16:47;;;;;;;104.65;99.50;;;;;;;;;;5059850;28;20024;-65
2023/08/19 07:19:15;;;;;;;84.03;79.82;;;;;;;;;;5062019;28;20047;-65
2023/08/19 07:21:42;;;;;;;81.53;77.47;;;;;;;;;;5059642;28;20036;-65
2023/08/19 07:24:11;;;;;;;53.75;51.03;;;;;;;;;;5059287;28;20045;-64
2023/08/19 07:26:38;;;;;;;43.90;41.65;;;;;;;;;;5061950;28;20447;-65
2023/08/19 07:29:04;;;;;;;45.17;42.78;;;;;;;;;;5059089;28;20060;-64
2023/08/19 07:31:30;;;;;;;75.72;71.95;;;;;;;;;;5059601;28;20064;-65
2023/08/19 07:33:55;;;;;;;45.90;43.58;;;;;;;;;;5059199;28;20029;-65
2023/08/19 07:36:22;;;;;;;51.17;48.38;;;;;;;;;;5060530;28;20029;-64
2023/08/19 07:38:48;;;;;;;43.30;40.53;;;;;;;;;;5058527;28;20293;-64
2023/08/19 07:41:14;;;;;;;42.63;40.45;;;;;;;;;;5060575;28;20036;-64
2023/08/19 07:43:40;;;;;;;45.17;42.78;;;;;;;;;;5062052;28;20089;-64
2023/08/19 07:46:05;;;;;;;43.13;40.92;;;;;;;;;;5059598;28;20024;-64
2023/08/19 07:48:31;;;;;;;66.88;63.55;;;;;;;;;;5061009;28;20073;-64
2023/08/19 07:50:57;;;;;;;62.60;59.45;;;;;;;;;;5060271;28;20461;-65
2023/08/19 07:53:23;;;;;;;47.60;45.13;;;;;;;;;;5062242;28;20119;-64
2023/08/19 07:55:48;;;;;;;47.08;44.65;;;;;;;;;;5059389;28;20034;-63
2023/08/19 07:58:13;;;;;;;63.40;60.20;;;;;;;;;;5061596;28;20043;-64
2023/08/19 08:00:39;;;;;;;66.97;63.53;;;;;;;;;;5060965;28;20040;-64
2023/08/19 08:03:05;;;;;;;81.57;77.53;;;;;;;;;;5060904;28;20053;-64
2023/08/19 08:05:31;;;;;;;54.50;51.70;;;;;;;;;;5061247;28;20059;-63
2023/08/19 08:07:56;;;;;;;62.97;59.80;;;;;;;;;;5062818;28;20044;-63
2023/08/19 08:10:22;;;;;;;98.65;93.80;;;;;;;;;;5049478;28;20036;-64
2023/08/19 08:12:47;;;;;;;83.40;78.97;;;;;;;;;;5042285;28;20115;-63
2023/08/19 08:15:12;;;;;;;182.52;173.52;;;;;;;;;;5046039;28;20039;-64
2023/08/19 08:17:38;;;;;;;193.27;183.80;;;;;;;;;;5041087;28;20492;-65
2023/08/19 08:20:04;;;;;;;157.88;150.10;;;;;;;;;;5034634;28;20067;-64
2023/08/19 08:22:29;;;;;;;151.02;143.65;;;;;;;;;;5033657;28;20494;-64
2023/08/19 08:24:56;;;;;;;216.38;205.90;;;;;;;;;;5034481;28;20032;-64
2023/08/19 08:27:21;;;;;;;233.55;221.93;;;;;;;;;;5034615;28;20116;-63
2023/08/19 08:29:46;;;;;;;208.20;198.00;;;;;;;;;;5031293;28;20040;-63
2023/08/19 08:32:12;;;;;;;221.07;210.35;;;;;;;;;;5033352;28;23283;-63
2023/08/19 08:34:37;;;;;;;218.55;207.88;;;;;;;;;;5048401;28;20032;-63
2023/08/19 08:37:03;;;;;;;223.93;212.95;;;;;;;;;;5056822;28;20037;-64
2023/08/19 08:39:28;;;;;;;163.63;155.57;;;;;;;;;;5054870;28;20113;-63
2023/08/19 08:41:54;;;;;;;179.00;170.10;;;;;;;;;;5056042;28;20039;-64
2023/08/19 08:44:19;;;;;;;252.88;240.52;;;;;;;;;;5058990;28;20140;-65
2023/08/19 08:46:47;;;;;;;198.20;188.40;;;;;;;;;;5062840;28;20035;-65
2023/08/19 08:49:12;;;;;;;169.13;160.75;;;;;;;;;;5060454;28;20032;-65
2023/08/19 08:51:38;;;;;;;165.45;157.20;;;;;;;;;;5057755;28;20497;-65
2023/08/19 08:54:05;;;;;;;251.35;239.00;;;;;;;;;;5056118;28;20589;-65
2023/08/19 08:56:31;;;;;;;172.52;164.05;;;;;;;;;;5058719;28;20134;-64
2023/08/19 08:58:56;;;;;;;162.95;154.88;;;;;;;;;;5066050;28;20040;-65
2023/08/19 09:01:24;;;;;;;148.20;140.82;;;;;;;;;;5065099;28;20093;-63
2023/08/19 09:03:51;;;;;;;89.22;84.32;;;;;;;;;;5069478;28;20371;-64
2023/08/19 09:06:17;;;;;;;63.05;59.85;;;;;;;;;;5068807;28;20089;-65
2023/08/19 09:08:47;;;;;;;115.82;110.07;;;;;;;;;;5067414;28;20056;-63
2023/08/19 09:11:20;;;;;;;91.03;86.53;;;;;;;;;;5067086;28;20185;-64
2023/08/19 09:13:50;;;;;;;194.10;184.55;;;;;;;;;;5068944;28;20036;-64
2023/08/19 09:16:16;;;;;;;143.73;136.63;;;;;;;;;;5066453;28;20040;-65
2023/08/19 09:18:42;;;;;;;62.75;59.45;;;;;;;;;;5066706;28;20033;-64
2023/08/19 09:21:07;;;;;;;84.32;80.13;;;;;;;;;;5066995;28;20225;-64
2023/08/19 09:23:33;;;;;;;72.85;69.22;;;;;;;;;;5065416;28;20033;-64
2023/08/19 09:25:59;;;;;;;217.95;207.27;;;;;;;;;;5065439;28;20028;-64
2023/08/19 09:28:24;;;;;;;81.50;77.30;;;;;;;;;;5062245;28;20417;-65
2023/08/19 09:30:50;;;;;;;117.78;111.75;;;;;;;;;;5062407;28;20127;-65
2023/08/19 09:33:20;;;;;;;276.48;262.13;;;;;;;;;;5061714;28;20029;-65
2023/08/19 09:35:46;;;;;;;;;;;;;;;;;;5064435;28;20508;-65
2023/08/19 09:38:22;;;;;;;144.98;137.85;;;;;;;;;;5066929;28;19916;-64
2023/08/19 09:41:00;;;;;;;95.10;90.38;;;;;;;;;;5069794;28;20063;-64
2023/08/19 09:43:26;;;;;;;109.25;103.80;;;;;;;;;;5064536;28;20040;-66
2023/08/19 09:45:56;;;;;;;101.28;96.28;;;;;;;;;;5065548;28;20032;-64
2023/08/19 09:48:22;;;;;;;112.70;107.05;;;;;;;;;;5064903;28;20164;-64
2023/08/19 09:50:47;;;;;;;112.93;107.32;;;;;;;;;;5071289;28;20477;-64
2023/08/19 09:53:15;;;;;;;84.10;79.90;;;;;;;;;;5064636;28;20056;-64
2023/08/19 09:55:45;;;;;;;139.48;132.55;;;;;;;;;;5067333;28;20090;-65
2023/08/19 09:58:10;;;;;;;96.00;91.25;;;;;;;;;;5068819;28;20057;-64
2023/08/19 10:00:36;;;;;;;261.63;248.70;;;;;;;;;;5067528;28;20032;-64
2023/08/19 10:03:02;;;;;;;280.20;266.42;;;;;;;;;;5067863;28;21080;-65
2023/08/19 10:05:31;;;;;;;127.10;120.80;;;;;;;;;;5067917;28;20080;-64
2023/08/19 10:08:01;;;;;;;331.10;314.55;;;;;;;;;;5066218;28;20036;-64
2023/08/19 10:10:30;;;;;;;181.05;172.07;;;;;;;;;;5066391;28;20374;-64
2023/08/19 10:12:56;;;;;;;302.58;287.52;;;;;;;;;;5062558;28;20403;-64
2023/08/19 10:15:23;;;;;;;157.23;149.45;;;;;;;;;;5096987;27;20037;-64
2023/08/19 10:17:52;;;;;;;200.32;190.40;;;;;;;;;;5063057;28;20053;-64
2023/08/19 10:20:22;;;;;;;256.77;244.13;;;;;;;;;;5062590;28;20078;-64
2023/08/19 10:22:52;;;;;;;325.40;309.10;;;;;;;;;;5061783;28;20289;-64
2023/08/19 10:25:17;;;;;;;;;;;;;;;;;;5063561;28;20107;-64
2023/08/19 10:27:43;;;;;;;315.02;299.30;;;;;;;;;;5064307;28;20055;-65
2023/08/19 10:30:35;;;;;;;229.52;218.27;;;;;;;;;;5066077;28;20055;-64
2023/08/19 10:33:29;;;;;;;335.45;318.70;;;;;;;;;;5062056;28;20048;-65
2023/08/19 10:35:59;;;;;;;330.40;313.88;;;;;;;;;;5066049;28;20385;-65
2023/08/19 10:38:24;;;;;;;300.65;285.70;;;;;;;;;;5068846;28;20115;-66
2023/08/19 10:41:02;;;;;;;224.52;213.40;;;;;;;;;;5064191;28;20135;-65
2023/08/19 10:43:46;;;;;;;205.52;195.48;;;;;;;;;;5065785;28;20043;-65
2023/08/19 10:46:16;;;;;;;268.73;255.50;;;;;;;;;;5068776;28;20470;-66
2023/08/19 10:48:45;;;;;;;222.80;211.82;;;;;;;;;;5061489;28;20036;-66
2023/08/19 10:51:10;;;;;;;273.00;259.52;;;;;;;;;;5058880;28;20032;-65
2023/08/19 10:53:36;;;;;;;276.60;262.90;;;;;;;;;;5059783;28;20033;-66
2023/08/19 10:56:11;;;;;;;309.55;293.20;;;;;;;;;;5065514;28;20028;-66
2023/08/19 10:58:36;;;;;;;221.45;210.65;;;;;;;;;;5064976;28;20029;-66
2023/08/19 11:01:02;;;;;;;207.13;196.93;;;;;;;;;;5062078;28;20445;-66
2023/08/19 11:03:28;;;;;;;249.60;237.25;;;;;;;;;;5062987;28;20111;-65
2023/08/19 11:05:53;;;;;;;193.10;183.63;;;;;;;;;;5062888;28;20091;-65
2023/08/19 11:08:19;;;;;;;137.77;130.93;;;;;;;;;;5065100;28;20354;-64
2023/08/19 11:10:45;;;;;;;219.10;208.15;;;;;;;;;;5061212;28;20127;-65
2023/08/19 11:13:12;;;;;;;233.05;221.57;;;;;;;;;;5066557;28;20044;-65
2023/08/19 11:15:38;;;;;;;223.70;212.68;;;;;;;;;;5058673;28;20101;-65
2023/08/19 11:18:04;;;;;;;93.53;88.88;;;;;;;;;;5062177;28;20044;-65
2023/08/19 11:20:29;;;;;;;139.25;132.38;;;;;;;;;;5059318;28;20542;-64
2023/08/19 11:22:55;;;;;;;226.63;215.48;;;;;;;;;;5067558;28;20081;-66
2023/08/19 11:25:20;;;;;;;127.20;120.90;;;;;;;;;;5062835;28;20041;-66
2023/08/19 11:27:46;;;;;;;227.07;215.90;;;;;;;;;;5062058;28;20040;-65
2023/08/19 11:30:14;;;;;;;221.02;210.18;;;;;;;;;;5057141;28;20077;-65
2023/08/19 11:32:44;;;;;;;154.93;147.27;;;;;;;;;;5062712;28;20025;-65
2023/08/19 11:35:10;;;;;;;181.60;172.60;;;;;;;;;;5063365;28;20806;-65
2023/08/19 11:37:35;;;;;;;108.07;102.70;;;;;;;;;;5067737;28;20043;-65
2023/08/19 11:40:05;;;;;;;56.35;53.47;;;;;;;;;;5066556;28;20120;-65
2023/08/19 11:42:30;;;;;;;137.77;131.00;;;;;;;;;;5063652;28;20041;-65
2023/08/19 11:44:56;;;;;;;117.60;111.75;;;;;;;;;;5060984;28;20109;-66
2023/08/19 11:47:22;;;;;;;73.05;69.35;;;;;;;;;;5061733;28;20047;-69
2023/08/19 11:49:47;;;;;;;66.25;62.90;;;;;;;;;;5060424;28;20474;-66
2023/08/19 11:52:21;;;;;;;58.25;55.28;;;;;;;;;;5063047;28;20031;-67
2023/08/19 11:55:04;;;;;;;139.02;132.10;;;;;;;;;;5059707;28;20101;-67
2023/08/19 11:57:37;;;;;;;133.18;126.50;;;;;;;;;;5062855;28;20048;-67
2023/08/19 12:00:15;;;;;;;103.03;97.88;;;;;;;;;;5063096;28;20066;-66
2023/08/19 12:02:40;;;;;;;156.20;148.43;;;;;;;;;;5062205;28;20136;-67
2023/08/19 12:05:07;;;;;;;222.98;212.00;;;;;;;;;;5061974;28;20127;-67
2023/08/19 12:07:34;;;;;;;226.32;215.18;;;;;;;;;;5061930;28;20036;-67
2023/08/19 12:10:00;;;;;;;223.48;212.52;;;;;;;;;;5060387;28;20064;-66
2023/08/19 12:12:25;;;;;;;215.30;204.73;;;;;;;;;;5054851;28;20067;-67
2023/08/19 12:14:51;;;;;;;258.00;245.18;;;;;;;;;;5057969;28;20529;-68
2023/08/19 12:17:17;;;;;;;212.95;202.55;;;;;;;;;;5061642;28;20039;-67
2023/08/19 12:19:44;;;;;;;259.77;247.00;;;;;;;;;;5094961;27;20029;-70
2023/08/19 12:22:10;;;;;;;273.30;259.88;;;;;;;;;;5060723;28;20024;-67
2023/08/19 12:24:35;;;;;;;295.98;281.23;;;;;;;;;;5062273;28;20029;-70
2023/08/19 12:27:01;;;;;;;291.73;277.17;;;;;;;;;;5063222;28;20470;-67
2023/08/19 12:29:27;;;;;;;296.95;282.30;;;;;;;;;;5062294;28;20468;-67
2023/08/19 12:31:52;;;;;;;308.38;292.90;;;;;;;;;;5064923;28;20294;-68
2023/08/19 12:34:18;;;;;;;299.00;284.17;;;;;;;;;;5059930;28;20056;-68
2023/08/19 12:36:43;;;;;;;286.67;272.38;;;;;;;;;;5062172;28;20098;-67
2023/08/19 12:39:08;;;;;;;290.23;275.95;;;;;;;;;;5058206;28;20028;-68
2023/08/19 12:41:34;;;;;;;213.55;203.15;;;;;;;;;;5060625;28;20044;-67
2023/08/19 12:43:59;;;;;;;204.75;194.68;;;;;;;;;;5058313;28;20025;-67
2023/08/19 12:46:31;;;;;;;174.05;165.50;;;;;;;;;;5060601;28;20643;-67
2023/08/19 12:48:56;;;;;;;203.15;193.23;;;;;;;;;;5059164;28;20055;-68
2023/08/19 12:51:22;;;;;;;128.85;122.45;;;;;;;;;;5063434;28;20036;-67
2023/08/19 12:53:47;;;;;;;153.05;145.45;;;;;;;;;;5058007;28;20107;-68
2023/08/19 12:56:12;;;;;;;147.43;140.07;;;;;;;;;;5064203;28;20032;-67
2023/08/19 12:58:38;;;;;;;131.88;125.20;;;;;;;;;;5063537;28;20025;-67
2023/08/19 13:01:06;;;;;;;136.55;129.52;;;;;;;;;;5063379;28;20048;-67
2023/08/19 13:03:32;;;;;;;124.28;117.97;;;;;;;;;;5061644;28;20033;-68
2023/08/19 13:05:57;;;;;;;124.97;118.68;;;;;;;;;;5061141;28;20055;-67
2023/08/19 13:08:23;;;;;;;103.20;97.30;;;;;;;;;;5062927;28;20028;-65
2023/08/19 13:10:48;;;;;;;67.78;64.32;;;;;;;;;;5065370;28;20055;-66
2023/08/19 13:13:14;;;;;;;124.05;117.82;;;;;;;;;;5069711;28;20032;-66
2023/08/19 13:15:39;;;;;;;113.88;108.05;;;;;;;;;;5069123;28;20032;-66
2023/08/19 13:18:05;;;;;;;112.18;106.55;;;;;;;;;;5059723;28;20527;-66
2023/08/19 13:20:30;;;;;;;124.25;118.00;;;;;;;;;;5062105;28;20036;-68
2023/08/19 13:22:55;;;;;;;102.97;97.85;;;;;;;;;;5061495;28;20036;-68
2023/08/19 13:25:21;;;;;;;89.65;85.18;;;;;;;;;;5062557;28;20592;-66
2023/08/19 13:27:47;;;;;;;111.78;106.22;;;;;;;;;;5060039;28;20048;-68
2023/08/19 13:30:13;;;;;;;114.47;106.85;;;;;;;;;;5041971;28;20063;-68
2023/08/19 13:32:38;;;;;;;154.13;146.30;;;;;;;;;;5060454;28;20036;-66
2023/08/19 13:35:07;;;;;;;151.32;143.70;;;;;;;;;;5060971;28;20040;-67
2023/08/19 13:37:33;;;;;;;187.80;178.57;;;;;;;;;;5063010;28;20056;-67
2023/08/19 13:39:58;;;;;;;145.13;137.82;;;;;;;;;;5059829;28;20028;-67
2023/08/19 13:42:24;;;;;;;123.30;117.07;;;;;;;;;;5065880;28;20033;-65
2023/08/19 13:44:49;;;;;;;135.88;129.10;;;;;;;;;;5093510;28;20036;-66
2023/08/19 13:47:15;;;;;;;110.75;105.05;;;;;;;;;;5070370;28;20024;-66
2023/08/19 13:49:40;;;;;;;153.45;144.68;;;;;;;;;;5063322;28;20143;-65
2023/08/19 13:52:09;;;;;;;121.28;115.20;;;;;;;;;;5070587;28;20101;-66
2023/08/19 13:54:34;;;;;;;171.73;163.23;;;;;;;;;;5063222;28;20481;-66